createdAt,value
2023-05-17T00:01:48.509Z,12.9
2023-05-17T00:07:09.792Z,12.9
2023-05-17T00:12:17.308Z,12.8
2023-05-17T00:17:53.741Z,12.8
2023-05-17T00:23:15.369Z,12.6
2023-05-17T00:29:08.766Z,12.5
2023-05-17T00:34:45.621Z,12.5
2023-05-17T00:40:21.705Z,12.5
2023-05-17T00:46:15.128Z,12.4
2023-05-17T00:57:13.104Z,12.3
2023-05-17T01:03:07.787Z,11.9
2023-05-17T01:09:00.279Z,12
2023-05-17T01:14:35.982Z,12
2023-05-17T01:20:15.236Z,12
2023-05-17T01:26:06.224Z,12
2023-05-17T01:31:57.668Z,12
2023-05-17T01:37:05.459Z,11.9
2023-05-17T01:42:57.728Z,11.6
2023-05-17T01:48:48.971Z,11.5
2023-05-17T01:54:42.143Z,11.4
2023-05-17T02:00:03.032Z,11.3
2023-05-17T02:05:40.326Z,11.2
2023-05-17T02:16:24.089Z,11.1
2023-05-17T02:21:45.856Z,11.3
2023-05-17T02:27:23.960Z,11.1
2023-05-17T02:33:00.197Z,10.9
2023-05-17T02:38:36.727Z,10.6
2023-05-17T02:44:14.657Z,10.5
2023-05-17T02:49:51.176Z,10.6
2023-05-17T02:55:27.869Z,10.6
2023-05-17T03:01:06.565Z,10.4
2023-05-17T03:06:44.280Z,10.5
2023-05-17T03:12:19.769Z,10.5
2023-05-17T03:17:58.105Z,10.6
2023-05-17T03:23:51.256Z,10.8
2023-05-17T03:29:27.592Z,10.8
2023-05-17T03:34:51.176Z,10.8
2023-05-17T03:40:12.068Z,10.7
2023-05-17T03:45:32.101Z,10.9
2023-05-17T03:50:40.685Z,10.9
2023-05-17T03:56:02.730Z,10.9
2023-05-17T04:01:38.445Z,10.9
2023-05-17T04:07:19.502Z,10.9
2023-05-17T04:12:55.537Z,11.1
2023-05-17T04:18:31.871Z,11.3
2023-05-17T04:24:10.079Z,11.6
2023-05-17T04:29:45.700Z,11.8
2023-05-17T04:35:23.037Z,11.8
2023-05-17T04:41:00.728Z,11.9
2023-05-17T04:46:37.257Z,12.1
2023-05-17T04:52:13.984Z,12.6
2023-05-17T04:57:52.066Z,13.1
2023-05-17T05:03:28.638Z,12.9
2023-05-17T05:09:04.619Z,13.2
2023-05-17T05:14:42.632Z,13.6
2023-05-17T05:20:22.363Z,13.9
2023-05-17T05:25:43.568Z,14.3
2023-05-17T05:31:22.965Z,14.6
2023-05-17T05:37:17.990Z,15.2
2023-05-17T05:42:53.924Z,15.6
2023-05-17T05:48:47.531Z,15.8
2023-05-17T05:54:55.053Z,16.4
2023-05-17T06:00:30.484Z,16.5
2023-05-17T06:06:04.976Z,16.7
2023-05-17T06:11:11.517Z,16.7
2023-05-17T06:17:01.927Z,16.9
2023-05-17T06:28:02.037Z,17.4
2023-05-17T06:33:39.025Z,17.3
2023-05-17T06:39:30.334Z,17.4
2023-05-17T06:45:06.152Z,17.7
2023-05-17T06:50:44.479Z,17.9
2023-05-17T06:56:23.057Z,18.2
2023-05-17T07:01:43.907Z,17.6
2023-05-17T07:07:07.653Z,18.1
2023-05-17T07:12:45.389Z,17.7
2023-05-17T07:18:08.689Z,18.4
2023-05-17T07:23:30.344Z,18.3
2023-05-17T07:28:54.442Z,18.6
2023-05-17T07:39:37.384Z,18.4
2023-05-17T07:45:00.158Z,18.1
2023-05-17T07:50:25.099Z,18.3
2023-05-17T07:55:46.732Z,17.9
2023-05-17T08:01:08.723Z,17.9
2023-05-17T08:11:51.869Z,19.4
2023-05-17T08:17:41.284Z,19.4
2023-05-17T08:23:19.263Z,19.2
2023-05-17T08:28:40.463Z,19.5
2023-05-17T08:34:28.414Z,19.6
2023-05-17T08:39:34.561Z,19.9
2023-05-17T08:45:12.525Z,19.1
2023-05-17T08:50:38.294Z,18.9
2023-05-17T08:56:00.215Z,18.9
2023-05-17T09:01:33.487Z,19.6
2023-05-17T09:07:14.648Z,19.2
2023-05-17T09:12:36.548Z,19
2023-05-17T09:18:12.545Z,19.5
2023-05-17T09:23:58.051Z,19.4
2023-05-17T09:29:37.650Z,18.8
2023-05-17T09:35:16.590Z,19.4
2023-05-17T09:40:38.318Z,19.8
2023-05-17T09:46:14.963Z,20.3
2023-05-17T09:51:35.968Z,20.1
2023-05-17T09:57:13.208Z,19.3
2023-05-17T10:02:49.822Z,19.8
2023-05-17T10:08:45.462Z,19.4
2023-05-17T10:14:08.359Z,19.7
2023-05-17T10:19:30.923Z,19.1
2023-05-17T10:25:06.889Z,19.4
2023-05-17T10:35:13.930Z,18.9
2023-05-17T10:40:44.774Z,18.6
2023-05-17T10:46:11.537Z,18.8
2023-05-17T10:52:00.970Z,18.6
2023-05-17T10:57:24.286Z,19
2023-05-17T11:02:57.702Z,18.8
2023-05-17T11:08:12.346Z,18.9
2023-05-17T11:13:32.357Z,19.1
2023-05-17T11:19:03.714Z,19.1
2023-05-17T11:24:29.754Z,19.3
2023-05-17T11:29:43.259Z,18.5
2023-05-17T11:35:35.301Z,19.3
2023-05-17T11:41:29.487Z,18.6
2023-05-17T11:47:21.958Z,18.9
2023-05-17T11:59:00.253Z,18.8
2023-05-17T12:04:35.701Z,18.6
2023-05-17T12:10:12.862Z,19.1
2023-05-17T12:21:44.266Z,18.6
2023-05-17T12:27:36.693Z,18.6
2023-05-17T12:33:29.622Z,19.3
2023-05-17T12:39:07.293Z,18.6
2023-05-17T12:45:12.932Z,18.8
2023-05-17T12:50:51.105Z,19.1
2023-05-17T12:56:26.822Z,18.9
2023-05-17T13:02:19.530Z,18.5
2023-05-17T13:07:57.371Z,19.4
2023-05-17T13:13:48.611Z,19.3
2023-05-17T13:19:42.564Z,18.9
2023-05-17T13:25:33.733Z,18.3
2023-05-17T13:31:07.182Z,18.3
2023-05-17T13:36:44.665Z,18.1
2023-05-17T13:42:20.791Z,18.2
2023-05-17T13:47:56.472Z,18
2023-05-17T13:53:03.531Z,17.7
2023-05-17T13:58:39.443Z,17.6
2023-05-17T14:04:01.866Z,17.5
2023-05-17T14:09:41.539Z,17.5
2023-05-17T14:15:17.188Z,17.4
2023-05-17T14:20:39.018Z,16.8
2023-05-17T14:26:15.569Z,16.1
2023-05-17T14:31:35.996Z,16
2023-05-17T14:36:57.097Z,16.1
2023-05-17T14:42:25.306Z,16.1
2023-05-17T14:47:45.876Z,16.1
2023-05-17T14:53:07.336Z,16.1
2023-05-17T14:58:14.496Z,15.9
2023-05-17T15:03:43.134Z,15.7
2023-05-17T15:09:04.776Z,15.4
2023-05-17T15:14:25.875Z,15.2
2023-05-17T15:19:48.600Z,15.1
2023-05-17T15:25:42.119Z,15
2023-05-17T15:31:19.940Z,14.9
2023-05-17T15:36:56.465Z,14.7
2023-05-17T15:42:47.519Z,14.4
2023-05-17T15:48:16.736Z,14.4
2023-05-17T15:53:52.743Z,14.3
2023-05-17T15:59:44.266Z,14.3
2023-05-17T16:05:21.501Z,14.3
2023-05-17T16:10:57.469Z,14.2
2023-05-17T16:16:32.991Z,14.1
2023-05-17T16:22:26.225Z,13.9
2023-05-17T16:28:16.673Z,13.9
2023-05-17T16:34:08.029Z,13.9
2023-05-17T16:40:00.245Z,13.9
2023-05-17T16:45:51.065Z,13.6
2023-05-17T16:51:42.825Z,13.4
2023-05-17T16:57:34.931Z,13
2023-05-17T17:03:27.114Z,12.6
2023-05-17T17:09:18.709Z,12.3
2023-05-17T17:15:28.043Z,12.2
2023-05-17T17:21:06.436Z,12.2
2023-05-17T17:26:59.469Z,12.2
2023-05-17T17:32:51.992Z,12.1
2023-05-17T17:38:27.520Z,12.2
2023-05-17T17:44:03.253Z,12.1
2023-05-17T17:49:55.536Z,12.1
2023-05-17T17:55:18.679Z,12.2
2023-05-17T18:00:54.954Z,12.2
2023-05-17T18:06:47.740Z,12.3
2023-05-17T18:12:38.313Z,12.3
2023-05-17T18:18:14.376Z,12.3
2023-05-17T18:23:51.829Z,12.3
2023-05-17T18:29:39.869Z,12.3
2023-05-17T18:40:25.465Z,12.2
2023-05-17T18:46:03.578Z,12.2
2023-05-17T18:51:39.305Z,12.1
2023-05-17T18:57:16.005Z,12.1
2023-05-17T19:02:21.361Z,12.1
2023-05-17T19:07:42.274Z,12.1
2023-05-17T19:13:20.131Z,12.1
2023-05-17T19:18:57.420Z,12.1
2023-05-17T19:24:34.508Z,12
2023-05-17T19:30:28.208Z,11.8
2023-05-17T19:35:51.552Z,11.9
2023-05-17T19:41:12.136Z,11.9
2023-05-17T19:46:50.437Z,11.9
2023-05-17T19:52:12.213Z,11.9
2023-05-17T20:03:58.749Z,11.8
2023-05-17T20:09:35.666Z,11.9
2023-05-17T20:15:27.291Z,11.9
2023-05-17T20:21:05.512Z,11.9
2023-05-17T20:26:27.422Z,11.9
2023-05-17T20:32:04.754Z,12
2023-05-17T20:37:57.378Z,12
2023-05-17T20:43:52.471Z,12
2023-05-17T20:49:43.684Z,12
2023-05-17T20:55:47.702Z,12
2023-05-17T21:01:23.988Z,12.1
2023-05-17T21:07:15.806Z,12.1
2023-05-17T21:12:52.083Z,12.1
2023-05-17T21:18:42.436Z,12.1
2023-05-17T21:23:50.424Z,12.1
2023-05-17T21:29:29.615Z,12.1
2023-05-17T21:35:22.343Z,12.1
2023-05-17T21:41:13.846Z,11.9
2023-05-17T21:47:06.204Z,11.9
2023-05-17T21:52:57.660Z,11.8
2023-05-17T22:04:31.701Z,11.8
2023-05-17T22:10:09.401Z,11.8
2023-05-17T22:16:01.005Z,11.8
2023-05-17T22:21:50.023Z,11.8
2023-05-17T22:27:25.908Z,11.8
2023-05-17T22:33:17.192Z,11.8
2023-05-17T22:39:08.749Z,11.7
2023-05-17T22:44:29.313Z,11.6
2023-05-17T22:50:20.573Z,11.6
2023-05-17T22:56:12.037Z,11.7
2023-05-17T23:01:32.797Z,11.6
2023-05-17T23:06:53.911Z,11.6
2023-05-17T23:12:15.229Z,11.6
2023-05-17T23:17:53.340Z,11.6
2023-05-17T23:23:29.604Z,11.6
2023-05-17T23:29:06.322Z,11.6
2023-05-17T23:34:27.486Z,11.6
2023-05-17T23:40:04.049Z,11.7
2023-05-17T23:45:40.947Z,11.6
2023-05-17T23:51:33.165Z,11.7
2023-05-17T23:57:09.163Z,11.6
